Airport View

Enter AWOS ICAO identifier for current METAR.

ex. KFNL

PAOM 212253Z 07005KT 10SM SCT095 06/01 A2952

21 Sep 2019 23:25

Frequency: 119.925

Phone: 907-443-4818

Other Area AWOS: PATE - PAWM - PFKT - PAGL

TAF PAOM 211730Z 2118/2218 00000KT P6SM SCT030 FM212000 10008KT P6SM BKN050 FM220600 06010KT P6SM VCSH BKN040